sensor_id;sensor_type;location;lat;lon;timestamp;temperature;humidity
47338;DHT22;33069;51.970;5.892;2024-01-07T00:00:03;1.00;88.60
47338;DHT22;33069;51.970;5.892;2024-01-07T00:02:29;1.10;88.60
47338;DHT22;33069;51.970;5.892;2024-01-07T00:04:56;1.10;88.60
47338;DHT22;33069;51.970;5.892;2024-01-07T00:07:22;1.00;88.70
47338;DHT22;33069;51.970;5.892;2024-01-07T00:09:47;1.00;88.70
47338;DHT22;33069;51.970;5.892;2024-01-07T00:12:13;1.00;88.80
47338;DHT22;33069;51.970;5.892;2024-01-07T00:14:39;0.90;88.80
47338;DHT22;33069;51.970;5.892;2024-01-07T00:17:04;1.00;88.90
47338;DHT22;33069;51.970;5.892;2024-01-07T00:19:30;1.10;89.10
47338;DHT22;33069;51.970;5.892;2024-01-07T00:22:01;1.00;89.00
47338;DHT22;33069;51.970;5.892;2024-01-07T00:24:26;1.10;89.10
47338;DHT22;33069;51.970;5.892;2024-01-07T00:26:54;1.10;89.10
47338;DHT22;33069;51.970;5.892;2024-01-07T00:29:20;1.20;89.10
47338;DHT22;33069;51.970;5.892;2024-01-07T00:31:46;1.00;89.10
47338;DHT22;33069;51.970;5.892;2024-01-07T00:34:11;1.00;89.20
47338;DHT22;33069;51.970;5.892;2024-01-07T00:36:37;1.00;89.40
47338;DHT22;33069;51.970;5.892;2024-01-07T00:39:03;1.00;89.40
47338;DHT22;33069;51.970;5.892;2024-01-07T00:41:29;1.10;89.50
47338;DHT22;33069;51.970;5.892;2024-01-07T00:43:55;1.00;89.50
47338;DHT22;33069;51.970;5.892;2024-01-07T00:46:22;1.00;89.50
47338;DHT22;33069;51.970;5.892;2024-01-07T00:48:47;1.00;89.60
47338;DHT22;33069;51.970;5.892;2024-01-07T00:51:13;1.10;89.60
47338;DHT22;33069;51.970;5.892;2024-01-07T00:53:39;1.00;89.60
47338;DHT22;33069;51.970;5.892;2024-01-07T00:56:05;1.10;89.60
47338;DHT22;33069;51.970;5.892;2024-01-07T00:58:31;1.00;89.40
47338;DHT22;33069;51.970;5.892;2024-01-07T01:00:57;1.00;89.50
47338;DHT22;33069;51.970;5.892;2024-01-07T01:03:25;1.00;89.50
47338;DHT22;33069;51.970;5.892;2024-01-07T01:05:52;1.00;89.30
47338;DHT22;33069;51.970;5.892;2024-01-07T01:08:18;1.10;89.40
47338;DHT22;33069;51.970;5.892;2024-01-07T01:10:44;1.20;89.30
47338;DHT22;33069;51.970;5.892;2024-01-07T01:13:09;1.20;89.20
47338;DHT22;33069;51.970;5.892;2024-01-07T01:15:35;1.10;88.90
47338;DHT22;33069;51.970;5.892;2024-01-07T01:18:01;1.10;88.70
47338;DHT22;33069;51.970;5.892;2024-01-07T01:20:28;1.00;88.50
47338;DHT22;33069;51.970;5.892;2024-01-07T01:22:53;1.20;88.50
47338;DHT22;33069;51.970;5.892;2024-01-07T01:25:19;1.20;88.30
47338;DHT22;33069;51.970;5.892;2024-01-07T01:27:46;1.20;88.10
47338;DHT22;33069;51.970;5.892;2024-01-07T01:30:11;1.30;88.10
47338;DHT22;33069;51.970;5.892;2024-01-07T01:32:38;1.30;87.90
47338;DHT22;33069;51.970;5.892;2024-01-07T01:35:05;1.40;87.90
47338;DHT22;33069;51.970;5.892;2024-01-07T01:37:31;1.40;87.70
47338;DHT22;33069;51.970;5.892;2024-01-07T01:39:58;1.40;87.60
47338;DHT22;33069;51.970;5.892;2024-01-07T01:42:24;1.30;87.40
47338;DHT22;33069;51.970;5.892;2024-01-07T01:44:50;1.30;87.30
47338;DHT22;33069;51.970;5.892;2024-01-07T01:47:17;1.30;87.30
47338;DHT22;33069;51.970;5.892;2024-01-07T01:49:45;1.30;87.20
47338;DHT22;33069;51.970;5.892;2024-01-07T01:52:12;1.30;87.00
47338;DHT22;33069;51.970;5.892;2024-01-07T01:54:38;1.20;87.00
47338;DHT22;33069;51.970;5.892;2024-01-07T01:57:05;1.10;87.20
47338;DHT22;33069;51.970;5.892;2024-01-07T01:59:32;1.10;87.40
47338;DHT22;33069;51.970;5.892;2024-01-07T02:01:59;1.20;87.60
47338;DHT22;33069;51.970;5.892;2024-01-07T02:04:25;1.20;87.60
47338;DHT22;33069;51.970;5.892;2024-01-07T02:06:51;1.30;87.70
47338;DHT22;33069;51.970;5.892;2024-01-07T02:09:17;1.30;87.70
47338;DHT22;33069;51.970;5.892;2024-01-07T02:11:43;1.20;87.70
47338;DHT22;33069;51.970;5.892;2024-01-07T02:14:08;1.00;88.00
47338;DHT22;33069;51.970;5.892;2024-01-07T02:16:34;0.90;88.10
47338;DHT22;33069;51.970;5.892;2024-01-07T02:19:00;1.00;88.40
47338;DHT22;33069;51.970;5.892;2024-01-07T02:21:25;1.00;88.60
47338;DHT22;33069;51.970;5.892;2024-01-07T02:23:51;1.00;88.70
47338;DHT22;33069;51.970;5.892;2024-01-07T02:26:17;1.20;88.80
47338;DHT22;33069;51.970;5.892;2024-01-07T02:28:42;1.20;88.80
47338;DHT22;33069;51.970;5.892;2024-01-07T02:31:08;0.90;89.00
47338;DHT22;33069;51.970;5.892;2024-01-07T02:33:34;1.00;89.00
47338;DHT22;33069;51.970;5.892;2024-01-07T02:35:59;1.10;89.10
47338;DHT22;33069;51.970;5.892;2024-01-07T02:38:25;0.90;89.10
47338;DHT22;33069;51.970;5.892;2024-01-07T02:40:51;1.00;89.20
47338;DHT22;33069;51.970;5.892;2024-01-07T02:43:16;1.00;89.20
47338;DHT22;33069;51.970;5.892;2024-01-07T02:45:42;1.00;89.20
47338;DHT22;33069;51.970;5.892;2024-01-07T02:48:07;0.90;89.10
47338;DHT22;33069;51.970;5.892;2024-01-07T02:50:33;0.90;89.10
47338;DHT22;33069;51.970;5.892;2024-01-07T02:52:59;1.10;89.10
47338;DHT22;33069;51.970;5.892;2024-01-07T02:55:24;1.10;89.00
47338;DHT22;33069;51.970;5.892;2024-01-07T02:57:50;1.20;88.90
47338;DHT22;33069;51.970;5.892;2024-01-07T03:00:16;1.30;88.80
47338;DHT22;33069;51.970;5.892;2024-01-07T03:02:42;1.10;88.60
47338;DHT22;33069;51.970;5.892;2024-01-07T03:05:08;0.90;88.40
47338;DHT22;33069;51.970;5.892;2024-01-07T03:07:34;1.00;88.50
47338;DHT22;33069;51.970;5.892;2024-01-07T03:09:59;1.00;88.50
47338;DHT22;33069;51.970;5.892;2024-01-07T03:12:25;1.00;88.50
47338;DHT22;33069;51.970;5.892;2024-01-07T03:14:51;1.10;88.40
47338;DHT22;33069;51.970;5.892;2024-01-07T03:17:16;0.80;88.10
47338;DHT22;33069;51.970;5.892;2024-01-07T03:19:43;0.90;88.10
47338;DHT22;33069;51.970;5.892;2024-01-07T03:22:08;0.90;88.00
47338;DHT22;33069;51.970;5.892;2024-01-07T03:24:34;0.80;87.90
47338;DHT22;33069;51.970;5.892;2024-01-07T03:27:00;0.80;88.00
47338;DHT22;33069;51.970;5.892;2024-01-07T03:29:25;0.90;88.00
47338;DHT22;33069;51.970;5.892;2024-01-07T03:31:51;0.90;87.80
47338;DHT22;33069;51.970;5.892;2024-01-07T03:34:18;0.90;87.60
47338;DHT22;33069;51.970;5.892;2024-01-07T03:36:44;0.90;87.40
47338;DHT22;33069;51.970;5.892;2024-01-07T03:39:10;0.90;87.30
47338;DHT22;33069;51.970;5.892;2024-01-07T03:41:35;0.80;87.20
47338;DHT22;33069;51.970;5.892;2024-01-07T03:44:01;0.80;87.20
47338;DHT22;33069;51.970;5.892;2024-01-07T03:46:27;0.90;87.30
47338;DHT22;33069;51.970;5.892;2024-01-07T03:48:53;1.00;87.30
47338;DHT22;33069;51.970;5.892;2024-01-07T03:51:19;1.10;87.30
47338;DHT22;33069;51.970;5.892;2024-01-07T03:53:44;1.10;87.30
47338;DHT22;33069;51.970;5.892;2024-01-07T03:56:10;1.10;87.10
47338;DHT22;33069;51.970;5.892;2024-01-07T03:58:36;1.10;87.10
47338;DHT22;33069;51.970;5.892;2024-01-07T04:01:01;1.10;87.00
47338;DHT22;33069;51.970;5.892;2024-01-07T04:03:27;1.10;86.90
47338;DHT22;33069;51.970;5.892;2024-01-07T04:05:53;1.20;86.80
47338;DHT22;33069;51.970;5.892;2024-01-07T04:08:18;1.20;86.70
47338;DHT22;33069;51.970;5.892;2024-01-07T04:10:44;1.00;86.50
47338;DHT22;33069;51.970;5.892;2024-01-07T04:13:10;0.90;86.40
47338;DHT22;33069;51.970;5.892;2024-01-07T04:15:36;0.80;86.50
47338;DHT22;33069;51.970;5.892;2024-01-07T04:18:03;0.90;86.60
47338;DHT22;33069;51.970;5.892;2024-01-07T04:20:29;0.90;86.50
47338;DHT22;33069;51.970;5.892;2024-01-07T04:22:55;0.90;86.60
47338;DHT22;33069;51.970;5.892;2024-01-07T04:25:21;0.80;86.60
47338;DHT22;33069;51.970;5.892;2024-01-07T04:27:47;0.80;86.70
47338;DHT22;33069;51.970;5.892;2024-01-07T04:30:13;0.90;86.80
47338;DHT22;33069;51.970;5.892;2024-01-07T04:32:38;0.90;86.70
47338;DHT22;33069;51.970;5.892;2024-01-07T04:35:04;0.70;86.30
47338;DHT22;33069;51.970;5.892;2024-01-07T04:37:32;0.60;86.20
47338;DHT22;33069;51.970;5.892;2024-01-07T04:39:58;0.80;86.30
47338;DHT22;33069;51.970;5.892;2024-01-07T04:42:24;0.70;86.20
47338;DHT22;33069;51.970;5.892;2024-01-07T04:44:50;0.70;86.10
47338;DHT22;33069;51.970;5.892;2024-01-07T04:49:51;0.70;86.20
47338;DHT22;33069;51.970;5.892;2024-01-07T04:52:17;0.70;85.90
47338;DHT22;33069;51.970;5.892;2024-01-07T04:54:43;0.70;85.80
47338;DHT22;33069;51.970;5.892;2024-01-07T04:57:08;0.70;85.70
47338;DHT22;33069;51.970;5.892;2024-01-07T04:59:34;0.70;85.80
47338;DHT22;33069;51.970;5.892;2024-01-07T05:02:00;0.70;85.90
47338;DHT22;33069;51.970;5.892;2024-01-07T05:04:25;0.80;85.90
47338;DHT22;33069;51.970;5.892;2024-01-07T05:06:51;0.90;85.80
47338;DHT22;33069;51.970;5.892;2024-01-07T05:09:17;0.90;85.70
47338;DHT22;33069;51.970;5.892;2024-01-07T05:11:43;0.80;85.50
47338;DHT22;33069;51.970;5.892;2024-01-07T05:14:08;0.70;85.30
47338;DHT22;33069;51.970;5.892;2024-01-07T05:16:34;0.70;85.20
47338;DHT22;33069;51.970;5.892;2024-01-07T05:19:00;0.60;85.20
47338;DHT22;33069;51.970;5.892;2024-01-07T05:21:25;0.70;85.30
47338;DHT22;33069;51.970;5.892;2024-01-07T05:23:51;0.60;84.90
47338;DHT22;33069;51.970;5.892;2024-01-07T05:26:17;0.60;85.10
47338;DHT22;33069;51.970;5.892;2024-01-07T05:28:43;0.60;85.20
47338;DHT22;33069;51.970;5.892;2024-01-07T05:31:15;0.60;85.20
47338;DHT22;33069;51.970;5.892;2024-01-07T05:33:45;0.50;85.10
47338;DHT22;33069;51.970;5.892;2024-01-07T05:36:14;0.60;85.10
47338;DHT22;33069;51.970;5.892;2024-01-07T05:38:41;0.60;85.30
47338;DHT22;33069;51.970;5.892;2024-01-07T05:41:07;0.60;85.20
47338;DHT22;33069;51.970;5.892;2024-01-07T05:43:34;0.60;85.10
47338;DHT22;33069;51.970;5.892;2024-01-07T05:46:01;0.70;85.20
47338;DHT22;33069;51.970;5.892;2024-01-07T05:48:26;0.60;84.80
47338;DHT22;33069;51.970;5.892;2024-01-07T05:50:52;0.60;84.80
47338;DHT22;33069;51.970;5.892;2024-01-07T05:53:18;0.80;85.00
47338;DHT22;33069;51.970;5.892;2024-01-07T05:55:44;0.70;84.90
47338;DHT22;33069;51.970;5.892;2024-01-07T05:58:10;0.80;85.00
47338;DHT22;33069;51.970;5.892;2024-01-07T06:00:36;0.80;85.00
47338;DHT22;33069;51.970;5.892;2024-01-07T06:03:02;0.80;84.70
47338;DHT22;33069;51.970;5.892;2024-01-07T06:05:28;0.80;84.60
47338;DHT22;33069;51.970;5.892;2024-01-07T06:07:53;0.80;84.60
47338;DHT22;33069;51.970;5.892;2024-01-07T06:10:19;0.80;84.70
47338;DHT22;33069;51.970;5.892;2024-01-07T06:12:44;0.60;84.40
47338;DHT22;33069;51.970;5.892;2024-01-07T06:15:11;0.70;84.70
47338;DHT22;33069;51.970;5.892;2024-01-07T06:17:37;0.70;84.70
47338;DHT22;33069;51.970;5.892;2024-01-07T06:20:02;0.60;84.50
47338;DHT22;33069;51.970;5.892;2024-01-07T06:22:28;0.60;84.40
47338;DHT22;33069;51.970;5.892;2024-01-07T06:24:54;0.70;84.60
47338;DHT22;33069;51.970;5.892;2024-01-07T06:27:19;0.60;84.50
47338;DHT22;33069;51.970;5.892;2024-01-07T06:29:45;0.70;84.50
47338;DHT22;33069;51.970;5.892;2024-01-07T06:32:11;0.60;84.40
47338;DHT22;33069;51.970;5.892;2024-01-07T06:34:37;0.60;84.40
47338;DHT22;33069;51.970;5.892;2024-01-07T06:37:03;0.60;84.30
47338;DHT22;33069;51.970;5.892;2024-01-07T06:39:29;0.50;84.10
47338;DHT22;33069;51.970;5.892;2024-01-07T06:41:54;0.60;84.20
47338;DHT22;33069;51.970;5.892;2024-01-07T06:44:20;0.40;84.00
47338;DHT22;33069;51.970;5.892;2024-01-07T06:46:46;0.40;84.10
47338;DHT22;33069;51.970;5.892;2024-01-07T06:49:11;0.50;84.20
47338;DHT22;33069;51.970;5.892;2024-01-07T06:51:38;0.50;84.10
47338;DHT22;33069;51.970;5.892;2024-01-07T06:54:04;0.40;84.10
47338;DHT22;33069;51.970;5.892;2024-01-07T06:56:30;0.50;84.10
47338;DHT22;33069;51.970;5.892;2024-01-07T06:58:56;0.60;84.20
47338;DHT22;33069;51.970;5.892;2024-01-07T07:01:22;0.70;84.20
47338;DHT22;33069;51.970;5.892;2024-01-07T07:03:49;0.60;84.20
47338;DHT22;33069;51.970;5.892;2024-01-07T07:06:15;0.50;84.00
47338;DHT22;33069;51.970;5.892;2024-01-07T07:08:41;0.30;83.60
47338;DHT22;33069;51.970;5.892;2024-01-07T07:11:07;0.40;83.90
47338;DHT22;33069;51.970;5.892;2024-01-07T07:13:32;0.50;83.80
47338;DHT22;33069;51.970;5.892;2024-01-07T07:15:59;0.50;83.50
47338;DHT22;33069;51.970;5.892;2024-01-07T07:18:25;0.50;83.30
47338;DHT22;33069;51.970;5.892;2024-01-07T07:20:51;0.60;83.10
47338;DHT22;33069;51.970;5.892;2024-01-07T07:23:17;0.40;82.60
47338;DHT22;33069;51.970;5.892;2024-01-07T07:25:42;0.50;82.80
47338;DHT22;33069;51.970;5.892;2024-01-07T07:28:08;0.40;82.80
47338;DHT22;33069;51.970;5.892;2024-01-07T07:30:34;0.50;83.00
47338;DHT22;33069;51.970;5.892;2024-01-07T07:32:59;0.60;82.90
47338;DHT22;33069;51.970;5.892;2024-01-07T07:35:25;0.60;82.90
47338;DHT22;33069;51.970;5.892;2024-01-07T07:37:51;0.50;83.00
47338;DHT22;33069;51.970;5.892;2024-01-07T07:40:16;0.50;83.00
47338;DHT22;33069;51.970;5.892;2024-01-07T07:42:42;0.50;83.10
47338;DHT22;33069;51.970;5.892;2024-01-07T07:45:09;0.40;83.10
47338;DHT22;33069;51.970;5.892;2024-01-07T07:47:34;0.50;83.10
47338;DHT22;33069;51.970;5.892;2024-01-07T07:50:00;0.60;83.20
47338;DHT22;33069;51.970;5.892;2024-01-07T07:52:27;0.60;82.80
47338;DHT22;33069;51.970;5.892;2024-01-07T07:54:53;0.40;82.60
47338;DHT22;33069;51.970;5.892;2024-01-07T07:57:20;0.50;82.70
47338;DHT22;33069;51.970;5.892;2024-01-07T07:59:49;0.50;82.40
47338;DHT22;33069;51.970;5.892;2024-01-07T08:02:15;0.60;82.40
47338;DHT22;33069;51.970;5.892;2024-01-07T08:04:41;0.70;82.30
47338;DHT22;33069;51.970;5.892;2024-01-07T08:07:08;0.70;81.90
47338;DHT22;33069;51.970;5.892;2024-01-07T08:09:34;0.60;81.70
47338;DHT22;33069;51.970;5.892;2024-01-07T08:12:03;0.60;81.70
47338;DHT22;33069;51.970;5.892;2024-01-07T08:14:30;0.60;81.80
47338;DHT22;33069;51.970;5.892;2024-01-07T08:16:56;0.40;81.40
47338;DHT22;33069;51.970;5.892;2024-01-07T08:19:22;0.60;81.70
47338;DHT22;33069;51.970;5.892;2024-01-07T08:21:47;0.40;81.50
47338;DHT22;33069;51.970;5.892;2024-01-07T08:24:13;0.50;81.50
47338;DHT22;33069;51.970;5.892;2024-01-07T08:26:38;0.50;81.60
47338;DHT22;33069;51.970;5.892;2024-01-07T08:29:04;0.40;81.50
47338;DHT22;33069;51.970;5.892;2024-01-07T08:31:31;0.60;81.90
47338;DHT22;33069;51.970;5.892;2024-01-07T08:33:56;0.40;81.80
47338;DHT22;33069;51.970;5.892;2024-01-07T08:36:22;0.50;82.20
47338;DHT22;33069;51.970;5.892;2024-01-07T08:38:48;0.40;82.00
47338;DHT22;33069;51.970;5.892;2024-01-07T08:41:17;0.40;82.20
47338;DHT22;33069;51.970;5.892;2024-01-07T08:43:43;0.50;82.40
47338;DHT22;33069;51.970;5.892;2024-01-07T08:46:11;0.50;82.00
47338;DHT22;33069;51.970;5.892;2024-01-07T08:48:36;0.40;81.70
47338;DHT22;33069;51.970;5.892;2024-01-07T08:51:02;0.40;81.30
47338;DHT22;33069;51.970;5.892;2024-01-07T08:53:28;0.40;81.30
47338;DHT22;33069;51.970;5.892;2024-01-07T08:55:54;0.40;80.90
47338;DHT22;33069;51.970;5.892;2024-01-07T08:58:20;0.40;80.90
47338;DHT22;33069;51.970;5.892;2024-01-07T09:00:46;0.40;81.00
47338;DHT22;33069;51.970;5.892;2024-01-07T09:03:11;0.40;81.00
47338;DHT22;33069;51.970;5.892;2024-01-07T09:05:37;0.40;81.00
47338;DHT22;33069;51.970;5.892;2024-01-07T09:08:03;0.40;80.90
47338;DHT22;33069;51.970;5.892;2024-01-07T09:10:29;0.40;80.70
47338;DHT22;33069;51.970;5.892;2024-01-07T09:12:54;0.60;80.90
47338;DHT22;33069;51.970;5.892;2024-01-07T09:15:21;0.60;80.60
47338;DHT22;33069;51.970;5.892;2024-01-07T09:17:47;0.50;80.40
47338;DHT22;33069;51.970;5.892;2024-01-07T09:20:13;0.40;80.30
47338;DHT22;33069;51.970;5.892;2024-01-07T09:22:39;0.40;80.30
47338;DHT22;33069;51.970;5.892;2024-01-07T09:25:06;0.50;80.30
47338;DHT22;33069;51.970;5.892;2024-01-07T09:27:33;0.30;79.80
47338;DHT22;33069;51.970;5.892;2024-01-07T09:29:59;0.40;80.10
47338;DHT22;33069;51.970;5.892;2024-01-07T09:32:25;0.40;80.10
47338;DHT22;33069;51.970;5.892;2024-01-07T09:34:50;0.40;80.10
47338;DHT22;33069;51.970;5.892;2024-01-07T09:37:17;0.40;80.10
47338;DHT22;33069;51.970;5.892;2024-01-07T09:39:43;0.40;80.10
47338;DHT22;33069;51.970;5.892;2024-01-07T09:42:17;0.60;80.00
47338;DHT22;33069;51.970;5.892;2024-01-07T09:44:44;0.40;79.40
47338;DHT22;33069;51.970;5.892;2024-01-07T09:47:14;0.40;79.90
47338;DHT22;33069;51.970;5.892;2024-01-07T09:49:40;0.40;79.70
47338;DHT22;33069;51.970;5.892;2024-01-07T09:52:08;0.50;80.00
47338;DHT22;33069;51.970;5.892;2024-01-07T09:54:36;0.60;79.90
47338;DHT22;33069;51.970;5.892;2024-01-07T09:57:04;0.40;79.20
47338;DHT22;33069;51.970;5.892;2024-01-07T09:59:37;0.60;79.50
47338;DHT22;33069;51.970;5.892;2024-01-07T10:02:03;0.60;79.30
47338;DHT22;33069;51.970;5.892;2024-01-07T10:04:29;0.50;79.20
47338;DHT22;33069;51.970;5.892;2024-01-07T10:06:58;0.40;79.10
47338;DHT22;33069;51.970;5.892;2024-01-07T10:09:29;0.50;79.30
47338;DHT22;33069;51.970;5.892;2024-01-07T10:11:54;0.60;79.20
47338;DHT22;33069;51.970;5.892;2024-01-07T10:14:20;0.70;78.70
47338;DHT22;33069;51.970;5.892;2024-01-07T10:16:50;0.60;78.40
47338;DHT22;33069;51.970;5.892;2024-01-07T10:19:23;0.70;78.70
47338;DHT22;33069;51.970;5.892;2024-01-07T10:22:04;0.70;78.30
47338;DHT22;33069;51.970;5.892;2024-01-07T10:24:41;0.70;77.90
47338;DHT22;33069;51.970;5.892;2024-01-07T10:27:08;0.70;77.50
47338;DHT22;33069;51.970;5.892;2024-01-07T10:29:34;0.70;77.60
47338;DHT22;33069;51.970;5.892;2024-01-07T10:32:00;0.50;77.40
47338;DHT22;33069;51.970;5.892;2024-01-07T10:34:31;0.70;77.70
47338;DHT22;33069;51.970;5.892;2024-01-07T10:36:59;0.80;77.10
47338;DHT22;33069;51.970;5.892;2024-01-07T10:39:25;0.70;77.30
47338;DHT22;33069;51.970;5.892;2024-01-07T10:41:52;0.90;77.10
47338;DHT22;33069;51.970;5.892;2024-01-07T10:44:26;1.00;76.80
47338;DHT22;33069;51.970;5.892;2024-01-07T10:46:56;1.10;76.50
47338;DHT22;33069;51.970;5.892;2024-01-07T10:49:27;1.00;75.50
47338;DHT22;33069;51.970;5.892;2024-01-07T10:52:06;0.90;75.20
47338;DHT22;33069;51.970;5.892;2024-01-07T10:54:34;0.90;75.50
47338;DHT22;33069;51.970;5.892;2024-01-07T10:59:40;0.80;74.90
47338;DHT22;33069;51.970;5.892;2024-01-07T11:02:08;0.80;75.20
47338;DHT22;33069;51.970;5.892;2024-01-07T11:09:59;1.10;74.70
47338;DHT22;33069;51.970;5.892;2024-01-07T11:12:26;1.20;75.30
47338;DHT22;33069;51.970;5.892;2024-01-07T11:14:52;1.10;74.50
47338;DHT22;33069;51.970;5.892;2024-01-07T11:20:06;1.20;74.70
47338;DHT22;33069;51.970;5.892;2024-01-07T11:22:33;1.10;74.10
47338;DHT22;33069;51.970;5.892;2024-01-07T11:25:02;1.10;73.50
47338;DHT22;33069;51.970;5.892;2024-01-07T11:27:31;1.20;73.70
47338;DHT22;33069;51.970;5.892;2024-01-07T11:30:08;1.20;73.60
47338;DHT22;33069;51.970;5.892;2024-01-07T11:32:45;1.00;73.50
47338;DHT22;33069;51.970;5.892;2024-01-07T11:35:14;1.10;73.50
47338;DHT22;33069;51.970;5.892;2024-01-07T11:37:41;1.10;72.90
47338;DHT22;33069;51.970;5.892;2024-01-07T11:40:09;1.10;73.20
47338;DHT22;33069;51.970;5.892;2024-01-07T11:42:36;1.20;73.00
47338;DHT22;33069;51.970;5.892;2024-01-07T11:45:02;1.40;73.10
47338;DHT22;33069;51.970;5.892;2024-01-07T11:47:28;1.60;72.90
47338;DHT22;33069;51.970;5.892;2024-01-07T11:49:54;1.50;71.30
47338;DHT22;33069;51.970;5.892;2024-01-07T11:52:20;1.30;71.60
47338;DHT22;33069;51.970;5.892;2024-01-07T11:54:47;1.10;71.60
47338;DHT22;33069;51.970;5.892;2024-01-07T11:57:13;1.20;71.70
47338;DHT22;33069;51.970;5.892;2024-01-07T11:59:39;1.00;71.20
47338;DHT22;33069;51.970;5.892;2024-01-07T12:02:05;1.20;71.30
47338;DHT22;33069;51.970;5.892;2024-01-07T12:04:32;1.30;70.80
47338;DHT22;33069;51.970;5.892;2024-01-07T12:06:58;1.20;69.30
47338;DHT22;33069;51.970;5.892;2024-01-07T12:09:24;1.20;67.50
47338;DHT22;33069;51.970;5.892;2024-01-07T12:11:50;1.00;67.30
47338;DHT22;33069;51.970;5.892;2024-01-07T12:14:17;1.10;67.80
47338;DHT22;33069;51.970;5.892;2024-01-07T12:16:43;1.10;67.90
47338;DHT22;33069;51.970;5.892;2024-01-07T12:19:10;1.10;67.90
47338;DHT22;33069;51.970;5.892;2024-01-07T12:21:36;1.20;68.40
47338;DHT22;33069;51.970;5.892;2024-01-07T12:24:03;1.20;68.60
47338;DHT22;33069;51.970;5.892;2024-01-07T12:26:30;1.30;69.10
47338;DHT22;33069;51.970;5.892;2024-01-07T12:29:00;1.30;68.50
47338;DHT22;33069;51.970;5.892;2024-01-07T12:31:32;1.20;68.40
47338;DHT22;33069;51.970;5.892;2024-01-07T12:33:58;1.30;69.30
47338;DHT22;33069;51.970;5.892;2024-01-07T12:36:24;1.40;69.50
47338;DHT22;33069;51.970;5.892;2024-01-07T12:38:50;1.50;69.20
47338;DHT22;33069;51.970;5.892;2024-01-07T12:41:20;1.40;68.20
47338;DHT22;33069;51.970;5.892;2024-01-07T12:43:45;1.30;67.70
47338;DHT22;33069;51.970;5.892;2024-01-07T12:46:11;1.10;67.90
47338;DHT22;33069;51.970;5.892;2024-01-07T12:48:37;1.00;68.10
47338;DHT22;33069;51.970;5.892;2024-01-07T12:51:03;0.80;67.90
47338;DHT22;33069;51.970;5.892;2024-01-07T12:53:28;0.80;68.10
47338;DHT22;33069;51.970;5.892;2024-01-07T12:55:54;0.80;68.20
47338;DHT22;33069;51.970;5.892;2024-01-07T12:59:22;0.90;68.20
47338;DHT22;33069;51.970;5.892;2024-01-07T13:01:49;1.00;68.20
47338;DHT22;33069;51.970;5.892;2024-01-07T13:04:17;1.30;68.10
47338;DHT22;33069;51.970;5.892;2024-01-07T13:06:43;1.30;67.60
47338;DHT22;33069;51.970;5.892;2024-01-07T13:09:08;1.60;67.90
47338;DHT22;33069;51.970;5.892;2024-01-07T13:11:35;1.70;67.60
47338;DHT22;33069;51.970;5.892;2024-01-07T13:14:01;1.70;67.20
47338;DHT22;33069;51.970;5.892;2024-01-07T13:16:28;1.80;67.40
47338;DHT22;33069;51.970;5.892;2024-01-07T13:18:54;1.70;67.30
47338;DHT22;33069;51.970;5.892;2024-01-07T13:21:20;1.70;67.20
47338;DHT22;33069;51.970;5.892;2024-01-07T13:23:46;1.50;67.00
47338;DHT22;33069;51.970;5.892;2024-01-07T13:26:13;1.20;66.50
47338;DHT22;33069;51.970;5.892;2024-01-07T13:28:39;1.20;66.40
47338;DHT22;33069;51.970;5.892;2024-01-07T13:31:05;1.30;66.80
47338;DHT22;33069;51.970;5.892;2024-01-07T13:33:32;1.30;66.40
47338;DHT22;33069;51.970;5.892;2024-01-07T13:35:58;1.30;66.80
47338;DHT22;33069;51.970;5.892;2024-01-07T13:38:24;1.20;65.90
47338;DHT22;33069;51.970;5.892;2024-01-07T13:40:50;1.40;66.70
47338;DHT22;33069;51.970;5.892;2024-01-07T13:43:16;1.50;66.90
47338;DHT22;33069;51.970;5.892;2024-01-07T13:45:41;1.60;66.50
47338;DHT22;33069;51.970;5.892;2024-01-07T13:48:07;1.50;66.50
47338;DHT22;33069;51.970;5.892;2024-01-07T13:50:33;1.50;66.00
47338;DHT22;33069;51.970;5.892;2024-01-07T13:52:59;1.40;65.60
47338;DHT22;33069;51.970;5.892;2024-01-07T13:55:25;1.40;65.80
47338;DHT22;33069;51.970;5.892;2024-01-07T13:57:50;1.20;65.70
47338;DHT22;33069;51.970;5.892;2024-01-07T14:00:16;1.30;66.20
47338;DHT22;33069;51.970;5.892;2024-01-07T14:02:44;1.20;66.10
47338;DHT22;33069;51.970;5.892;2024-01-07T14:05:13;1.20;66.80
47338;DHT22;33069;51.970;5.892;2024-01-07T14:07:38;1.20;66.80
47338;DHT22;33069;51.970;5.892;2024-01-07T14:10:05;1.10;67.10
47338;DHT22;33069;51.970;5.892;2024-01-07T14:12:31;1.20;66.90
47338;DHT22;33069;51.970;5.892;2024-01-07T14:14:58;1.10;66.60
47338;DHT22;33069;51.970;5.892;2024-01-07T14:17:24;1.10;67.00
47338;DHT22;33069;51.970;5.892;2024-01-07T14:19:50;1.10;67.20
47338;DHT22;33069;51.970;5.892;2024-01-07T14:22:22;1.20;67.20
47338;DHT22;33069;51.970;5.892;2024-01-07T14:24:48;1.20;66.90
47338;DHT22;33069;51.970;5.892;2024-01-07T14:27:15;1.20;66.70
47338;DHT22;33069;51.970;5.892;2024-01-07T14:29:41;1.20;66.80
47338;DHT22;33069;51.970;5.892;2024-01-07T14:32:07;1.10;66.30
47338;DHT22;33069;51.970;5.892;2024-01-07T14:34:33;1.20;66.70
47338;DHT22;33069;51.970;5.892;2024-01-07T14:36:59;1.20;66.50
47338;DHT22;33069;51.970;5.892;2024-01-07T14:39:26;1.20;66.70
47338;DHT22;33069;51.970;5.892;2024-01-07T14:41:51;1.20;67.30
47338;DHT22;33069;51.970;5.892;2024-01-07T14:44:17;1.40;67.50
47338;DHT22;33069;51.970;5.892;2024-01-07T14:46:43;1.30;67.10
47338;DHT22;33069;51.970;5.892;2024-01-07T14:49:09;1.30;67.30
47338;DHT22;33069;51.970;5.892;2024-01-07T14:51:34;1.20;67.40
47338;DHT22;33069;51.970;5.892;2024-01-07T14:54:00;1.30;67.30
47338;DHT22;33069;51.970;5.892;2024-01-07T14:56:26;1.20;66.50
47338;DHT22;33069;51.970;5.892;2024-01-07T14:58:52;1.10;66.60
47338;DHT22;33069;51.970;5.892;2024-01-07T15:01:18;1.20;67.00
47338;DHT22;33069;51.970;5.892;2024-01-07T15:03:44;1.10;67.10
47338;DHT22;33069;51.970;5.892;2024-01-07T15:06:10;1.00;66.60
47338;DHT22;33069;51.970;5.892;2024-01-07T15:08:36;1.10;67.30
47338;DHT22;33069;51.970;5.892;2024-01-07T15:11:02;1.10;67.70
47338;DHT22;33069;51.970;5.892;2024-01-07T15:13:29;1.20;67.50
47338;DHT22;33069;51.970;5.892;2024-01-07T15:15:55;1.10;67.50
47338;DHT22;33069;51.970;5.892;2024-01-07T15:18:21;1.00;68.00
47338;DHT22;33069;51.970;5.892;2024-01-07T15:20:47;1.00;68.20
47338;DHT22;33069;51.970;5.892;2024-01-07T15:23:13;0.90;68.10
47338;DHT22;33069;51.970;5.892;2024-01-07T15:25:38;0.80;68.20
47338;DHT22;33069;51.970;5.892;2024-01-07T15:28:04;0.80;68.30
47338;DHT22;33069;51.970;5.892;2024-01-07T15:30:30;0.80;68.60
47338;DHT22;33069;51.970;5.892;2024-01-07T15:32:55;0.70;69.10
47338;DHT22;33069;51.970;5.892;2024-01-07T15:35:22;0.70;69.10
47338;DHT22;33069;51.970;5.892;2024-01-07T15:37:47;0.60;69.60
47338;DHT22;33069;51.970;5.892;2024-01-07T15:40:14;0.60;69.60
47338;DHT22;33069;51.970;5.892;2024-01-07T15:42:40;0.50;69.70
47338;DHT22;33069;51.970;5.892;2024-01-07T15:45:06;0.50;70.00
47338;DHT22;33069;51.970;5.892;2024-01-07T15:47:31;0.50;69.90
47338;DHT22;33069;51.970;5.892;2024-01-07T15:50:00;0.50;69.70
47338;DHT22;33069;51.970;5.892;2024-01-07T15:52:27;0.50;69.50